Time;durP1;ratioP1;P1;durP2;ratioP2;P2;SDS_P1;SDS_P2;PMS_P1;PMS_P2;Temp;Humidity;BMP_temperature;BMP_pressure;BME280_temperature;BME280_humidity;BME280_pressure;Samples;Min_cycle;Max_cycle;Signal;HPM_P1;HPM_P2
2022/03/25 00:00:29;;;;;;;7.95;4.12;;;;;;;;;;1694667;85;21070;-70
2022/03/25 00:03:33;;;;;;;9.38;4.78;;;;;;;;;;1801710;79;23448;-70
2022/03/25 00:06:00;;;;;;;6.37;4.33;;;;;;;;;;1761606;81;21083;-71
2022/03/25 00:08:26;;;;;;;8.30;4.45;;;;;;;;;;1761629;81;21032;-71
2022/03/25 00:10:53;;;;;;;8.75;4.15;;;;;;;;;;1761675;81;21504;-70
2022/03/25 00:13:21;;;;;;;7.62;3.87;;;;;;;;;;1761759;81;21044;-71
2022/03/25 00:15:50;;;;;;;6.08;3.72;;;;;;;;;;1761733;81;21048;-71
2022/03/25 00:18:17;;;;;;;5.53;3.60;;;;;;;;;;1761632;81;21009;-71
2022/03/25 00:20:45;;;;;;;7.33;3.80;;;;;;;;;;1761573;81;21112;-69
2022/03/25 00:23:12;;;;;;;6.00;3.80;;;;;;;;;;1761538;81;21063;-69
2022/03/25 00:25:39;;;;;;;5.17;3.40;;;;;;;;;;1761687;81;21559;-69
2022/03/25 00:28:06;;;;;;;5.97;3.77;;;;;;;;;;1761713;81;21072;-69
2022/03/25 00:30:32;;;;;;;6.97;3.90;;;;;;;;;;1761698;81;21631;-69
2022/03/25 00:32:58;;;;;;;6.87;3.75;;;;;;;;;;1761286;81;21583;-70
2022/03/25 00:35:27;;;;;;;5.50;3.55;;;;;;;;;;1761684;81;21072;-69
2022/03/25 00:37:55;;;;;;;6.33;4.00;;;;;;;;;;1761601;81;21128;-69
2022/03/25 00:40:23;;;;;;;6.28;3.45;;;;;;;;;;1761558;81;21028;-69
2022/03/25 00:42:49;;;;;;;5.70;3.98;;;;;;;;;;1761592;81;21087;-69
2022/03/25 00:45:16;;;;;;;5.58;3.83;;;;;;;;;;1761412;81;21080;-69
2022/03/25 00:47:42;;;;;;;6.30;3.33;;;;;;;;;;1761676;81;21056;-69
2022/03/25 00:50:09;;;;;;;5.80;3.58;;;;;;;;;;1761483;81;21092;-70
2022/03/25 00:52:36;;;;;;;5.62;3.62;;;;;;;;;;1758538;81;21088;-69
2022/03/25 00:55:02;;;;;;;5.30;3.25;;;;;;;;;;1729840;83;21029;-68
2022/03/25 00:57:29;;;;;;;6.78;3.47;;;;;;;;;;1730186;83;21065;-68
2022/03/25 00:59:56;;;;;;;5.00;3.10;;;;;;;;;;1729734;82;21032;-68
2022/03/25 01:05:12;;;;;;;5.42;3.37;;;;;;;;;;1701863;80;73265;-70
2022/03/25 01:07:41;;;;;;;5.30;3.22;;;;;;;;;;1690292;84;20983;-69
2022/03/25 01:10:08;;;;;;;5.15;3.30;;;;;;;;;;1685741;85;21027;-70
2022/03/25 01:12:36;;;;;;;5.40;3.52;;;;;;;;;;1685920;85;21078;-69
2022/03/25 01:15:03;;;;;;;5.35;3.85;;;;;;;;;;1685487;85;21011;-69
2022/03/25 01:17:30;;;;;;;7.17;4.65;;;;;;;;;;1685291;85;21527;-69
2022/03/25 01:19:56;;;;;;;6.97;4.62;;;;;;;;;;1685498;85;21043;-69
2022/03/25 01:22:24;;;;;;;6.33;3.95;;;;;;;;;;1685377;85;21090;-69
2022/03/25 01:24:52;;;;;;;5.50;3.77;;;;;;;;;;1685547;85;21038;-70
2022/03/25 01:27:18;;;;;;;8.15;4.00;;;;;;;;;;1685546;85;21034;-69
2022/03/25 01:29:45;;;;;;;5.83;3.60;;;;;;;;;;1685731;85;21057;-69
2022/03/25 01:32:12;;;;;;;5.35;3.65;;;;;;;;;;1685426;85;21007;-71
2022/03/25 01:34:38;;;;;;;5.62;3.87;;;;;;;;;;1685615;85;21038;-70
2022/03/25 01:37:06;;;;;;;6.72;3.80;;;;;;;;;;1685473;85;21034;-70
2022/03/25 01:39:33;;;;;;;8.90;4.28;;;;;;;;;;1685510;85;21542;-70
2022/03/25 01:42:00;;;;;;;6.53;4.50;;;;;;;;;;1685344;85;21030;-70
2022/03/25 01:44:27;;;;;;;6.05;3.52;;;;;;;;;;1685585;85;21041;-70
2022/03/25 01:46:55;;;;;;;5.50;3.35;;;;;;;;;;1685463;85;21063;-70
2022/03/25 01:49:22;;;;;;;7.03;4.08;;;;;;;;;;1685352;85;21281;-70
2022/03/25 01:51:50;;;;;;;6.92;4.22;;;;;;;;;;1685357;85;21529;-70
2022/03/25 01:54:21;;;;;;;5.97;3.65;;;;;;;;;;1685415;85;21358;-70
2022/03/25 01:56:53;;;;;;;7.33;4.05;;;;;;;;;;1685583;85;21082;-70
2022/03/25 01:59:20;;;;;;;7.17;3.90;;;;;;;;;;1685289;85;21569;-70
2022/03/25 02:01:47;;;;;;;8.33;4.37;;;;;;;;;;1685520;85;21558;-70
2022/03/25 02:04:14;;;;;;;6.00;3.65;;;;;;;;;;1684997;83;21585;-71
2022/03/25 02:06:41;;;;;;;7.47;4.80;;;;;;;;;;1685387;85;21126;-70
2022/03/25 02:09:07;;;;;;;7.80;4.75;;;;;;;;;;1685303;85;21050;-71
2022/03/25 02:11:36;;;;;;;9.48;4.58;;;;;;;;;;1685726;85;21070;-71
2022/03/25 02:14:03;;;;;;;9.33;4.67;;;;;;;;;;1654523;87;21549;-71
2022/03/25 02:16:36;;;;;;;7.25;4.80;;;;;;;;;;1626727;88;21017;-70
2022/03/25 02:19:02;;;;;;;10.75;5.40;;;;;;;;;;1626197;88;21088;-69
2022/03/25 02:21:33;;;;;;;9.83;5.08;;;;;;;;;;1627067;88;21132;-69
2022/03/25 02:24:00;;;;;;;12.25;6.12;;;;;;;;;;1626990;88;21128;-69
2022/03/25 02:26:28;;;;;;;10.45;5.75;;;;;;;;;;1626839;88;21128;-69
2022/03/25 02:28:56;;;;;;;10.32;5.53;;;;;;;;;;1627094;88;21056;-70
2022/03/25 02:31:23;;;;;;;8.45;4.95;;;;;;;;;;1626808;88;21060;-70
2022/03/25 02:33:52;;;;;;;9.88;5.62;;;;;;;;;;1627056;88;21118;-72
2022/03/25 02:36:18;;;;;;;10.03;5.87;;;;;;;;;;1626792;88;21072;-69
2022/03/25 02:38:45;;;;;;;12.20;5.92;;;;;;;;;;1627151;88;21056;-69
2022/03/25 02:41:11;;;;;;;12.25;6.40;;;;;;;;;;1626848;88;21061;-69
2022/03/25 02:43:38;;;;;;;12.13;6.35;;;;;;;;;;1627167;88;21088;-69
2022/03/25 02:46:06;;;;;;;11.80;6.35;;;;;;;;;;1626943;88;21100;-71
2022/03/25 02:48:32;;;;;;;12.80;6.35;;;;;;;;;;1626849;88;21048;-70
2022/03/25 02:50:59;;;;;;;12.78;6.92;;;;;;;;;;1626898;88;21115;-70
2022/03/25 02:53:27;;;;;;;12.90;7.58;;;;;;;;;;1626947;88;22132;-70
2022/03/25 02:55:57;;;;;;;16.00;8.88;;;;;;;;;;1627020;88;21092;-71
2022/03/25 02:58:23;;;;;;;14.50;7.42;;;;;;;;;;1626960;88;21463;-71
2022/03/25 03:00:49;;;;;;;10.23;6.53;;;;;;;;;;1627146;88;21540;-72
2022/03/25 03:03:17;;;;;;;16.52;8.80;;;;;;;;;;1626935;87;21151;-71
2022/03/25 03:05:43;;;;;;;15.35;8.78;;;;;;;;;;1625111;88;21113;-71
2022/03/25 03:08:10;;;;;;;14.83;8.23;;;;;;;;;;1624829;88;21084;-71
2022/03/25 03:10:38;;;;;;;15.25;8.68;;;;;;;;;;1624744;88;21033;-71
2022/03/25 03:13:06;;;;;;;19.30;9.23;;;;;;;;;;1624857;88;21017;-71
2022/03/25 03:15:33;;;;;;;18.55;9.30;;;;;;;;;;1624764;88;21061;-71
2022/03/25 03:18:02;;;;;;;13.75;8.18;;;;;;;;;;1624863;88;21041;-71
2022/03/25 03:20:28;;;;;;;14.85;8.35;;;;;;;;;;1624711;88;21116;-71
2022/03/25 03:22:58;;;;;;;17.82;9.25;;;;;;;;;;1624955;88;21085;-71
2022/03/25 03:25:26;;;;;;;15.93;7.80;;;;;;;;;;1624690;88;21120;-71
2022/03/25 03:27:53;;;;;;;19.82;10.40;;;;;;;;;;1624884;88;21121;-71
2022/03/25 03:30:19;;;;;;;17.00;8.83;;;;;;;;;;1624833;88;21073;-71
2022/03/25 03:32:47;;;;;;;16.07;8.80;;;;;;;;;;1624894;88;21120;-71
2022/03/25 03:35:14;;;;;;;13.68;7.45;;;;;;;;;;1624708;88;21072;-70
2022/03/25 03:37:42;;;;;;;18.77;10.43;;;;;;;;;;1624918;88;21112;-70
2022/03/25 03:40:09;;;;;;;22.65;10.08;;;;;;;;;;1623997;88;21072;-70
2022/03/25 03:42:36;;;;;;;24.10;10.18;;;;;;;;;;1624843;88;21045;-70
2022/03/25 03:45:03;;;;;;;22.15;11.22;;;;;;;;;;1624862;88;21338;-70
2022/03/25 03:47:31;;;;;;;16.77;9.98;;;;;;;;;;1624650;88;21085;-70
2022/03/25 03:49:58;;;;;;;18.62;11.03;;;;;;;;;;1624765;88;21045;-70
2022/03/25 03:52:25;;;;;;;20.50;11.43;;;;;;;;;;1624753;88;21072;-70
2022/03/25 03:54:52;;;;;;;19.52;9.65;;;;;;;;;;1624932;88;21078;-70
2022/03/25 03:57:19;;;;;;;19.40;11.20;;;;;;;;;;1624818;88;21076;-70
2022/03/25 03:59:45;;;;;;;23.40;12.55;;;;;;;;;;1624882;88;21013;-69
2022/03/25 04:02:12;;;;;;;19.07;11.65;;;;;;;;;;1624734;88;21128;-69
2022/03/25 04:04:39;;;;;;;27.77;12.98;;;;;;;;;;1633175;86;21595;-69
2022/03/25 04:07:05;;;;;;;19.85;11.78;;;;;;;;;;1661253;86;21072;-69
2022/03/25 04:09:35;;;;;;;23.05;11.88;;;;;;;;;;1658200;86;21120;-69
2022/03/25 04:12:01;;;;;;;20.08;10.48;;;;;;;;;;1658411;86;21053;-69
2022/03/25 04:14:30;;;;;;;18.27;10.08;;;;;;;;;;1661547;86;21556;-69
2022/03/25 04:16:56;;;;;;;19.00;10.58;;;;;;;;;;1666926;86;21064;-69
2022/03/25 04:19:24;;;;;;;17.67;10.60;;;;;;;;;;1633011;88;21089;-69
2022/03/25 04:21:51;;;;;;;17.73;11.00;;;;;;;;;;1658964;86;21100;-70
2022/03/25 04:24:17;;;;;;;19.70;12.15;;;;;;;;;;1658756;86;21049;-69
2022/03/25 04:26:45;;;;;;;23.25;12.70;;;;;;;;;;1658716;86;21528;-69
2022/03/25 04:29:12;;;;;;;23.12;12.73;;;;;;;;;;1658826;86;21057;-70
2022/03/25 04:31:39;;;;;;;25.15;13.20;;;;;;;;;;1658854;86;21053;-69
2022/03/25 04:34:07;;;;;;;23.02;13.48;;;;;;;;;;1658704;85;21061;-70
2022/03/25 04:36:34;;;;;;;24.65;13.60;;;;;;;;;;1658827;86;21068;-69
2022/03/25 04:39:01;;;;;;;21.55;12.23;;;;;;;;;;1658596;86;21579;-69
2022/03/25 04:41:27;;;;;;;21.00;12.28;;;;;;;;;;1658704;86;21490;-70
2022/03/25 04:43:54;;;;;;;16.93;9.90;;;;;;;;;;1658502;86;21077;-70
2022/03/25 04:46:20;;;;;;;16.70;10.38;;;;;;;;;;1658681;86;21084;-70
2022/03/25 04:48:47;;;;;;;19.70;11.03;;;;;;;;;;1658611;86;21038;-70
2022/03/25 04:51:14;;;;;;;19.87;10.98;;;;;;;;;;1658962;86;21061;-70
2022/03/25 04:53:40;;;;;;;17.07;9.83;;;;;;;;;;1658757;86;21080;-69
2022/03/25 04:56:08;;;;;;;16.97;10.98;;;;;;;;;;1658695;86;21057;-71
2022/03/25 04:58:34;;;;;;;22.10;11.65;;;;;;;;;;1658865;86;21124;-69
2022/03/25 05:01:01;;;;;;;20.82;11.78;;;;;;;;;;1658609;86;21077;-70
2022/03/25 05:03:29;;;;;;;22.05;11.15;;;;;;;;;;1658807;85;21069;-69
2022/03/25 05:05:57;;;;;;;19.52;10.68;;;;;;;;;;1658483;86;21030;-69
2022/03/25 05:08:25;;;;;;;18.60;10.45;;;;;;;;;;1658620;86;21061;-69
2022/03/25 05:10:52;;;;;;;18.12;9.55;;;;;;;;;;1658698;86;21121;-69
2022/03/25 05:13:19;;;;;;;16.77;9.98;;;;;;;;;;1658956;86;21049;-69
2022/03/25 05:15:47;;;;;;;18.70;10.55;;;;;;;;;;1658593;86;21130;-71
2022/03/25 05:18:15;;;;;;;18.32;10.48;;;;;;;;;;1658579;86;21049;-70
2022/03/25 05:20:43;;;;;;;17.02;9.10;;;;;;;;;;1658740;86;21073;-71
2022/03/25 05:23:09;;;;;;;19.45;10.53;;;;;;;;;;1658577;86;21080;-69
2022/03/25 05:25:36;;;;;;;17.05;10.32;;;;;;;;;;1658733;85;21085;-69
2022/03/25 05:28:04;;;;;;;13.38;7.97;;;;;;;;;;1658672;86;21049;-69
2022/03/25 05:30:31;;;;;;;14.60;8.93;;;;;;;;;;1658768;86;21013;-71
2022/03/25 05:32:58;;;;;;;13.28;8.20;;;;;;;;;;1658481;86;21041;-69
2022/03/25 05:35:25;;;;;;;15.15;8.70;;;;;;;;;;1658842;86;21543;-69
2022/03/25 05:37:52;;;;;;;13.72;7.70;;;;;;;;;;1658809;86;21124;-69
2022/03/25 05:40:20;;;;;;;11.68;7.35;;;;;;;;;;1658696;86;21057;-69
2022/03/25 05:42:47;;;;;;;13.10;7.95;;;;;;;;;;1658748;86;21049;-69
2022/03/25 05:45:13;;;;;;;10.70;6.95;;;;;;;;;;1658711;86;21071;-69
2022/03/25 05:47:49;;;;;;;11.55;6.95;;;;;;;;;;1659048;86;21061;-69
2022/03/25 05:50:16;;;;;;;9.78;6.12;;;;;;;;;;1658867;86;21120;-69
2022/03/25 05:52:43;;;;;;;11.25;7.20;;;;;;;;;;1658915;86;21069;-69
2022/03/25 05:55:10;;;;;;;12.30;7.83;;;;;;;;;;1658877;86;21544;-69
2022/03/25 05:57:37;;;;;;;14.25;7.50;;;;;;;;;;1658912;86;21073;-69
2022/03/25 06:00:04;;;;;;;11.40;7.00;;;;;;;;;;1658694;86;21100;-69
2022/03/25 06:02:32;;;;;;;11.97;7.53;;;;;;;;;;1656968;86;21068;-72
2022/03/25 06:05:00;;;;;;;12.88;7.83;;;;;;;;;;1658606;85;21069;-70
2022/03/25 06:07:26;;;;;;;11.35;6.58;;;;;;;;;;1658914;86;21604;-70
2022/03/25 06:09:53;;;;;;;11.80;7.30;;;;;;;;;;1617971;86;21073;-70
2022/03/25 06:12:21;;;;;;;10.20;6.10;;;;;;;;;;1658799;86;21053;-70
2022/03/25 06:14:48;;;;;;;10.13;6.58;;;;;;;;;;1658644;86;21073;-72
2022/03/25 06:17:15;;;;;;;10.32;7.20;;;;;;;;;;1658914;86;21057;-72
2022/03/25 06:19:43;;;;;;;12.07;7.70;;;;;;;;;;1658773;86;21069;-70
2022/03/25 06:22:10;;;;;;;12.60;7.00;;;;;;;;;;1658616;86;21480;-70
2022/03/25 06:24:38;;;;;;;10.53;6.67;;;;;;;;;;1658791;86;21608;-70
2022/03/25 06:27:05;;;;;;;12.53;7.55;;;;;;;;;;1658787;86;21076;-70
2022/03/25 06:29:32;;;;;;;11.08;6.40;;;;;;;;;;1658916;86;21076;-70
2022/03/25 06:31:59;;;;;;;12.00;7.17;;;;;;;;;;1658725;86;21133;-70
2022/03/25 06:34:26;;;;;;;11.40;6.78;;;;;;;;;;1658484;86;21681;-70
2022/03/25 06:36:52;;;;;;;10.35;6.95;;;;;;;;;;1658508;86;21124;-70
2022/03/25 06:39:19;;;;;;;10.15;6.80;;;;;;;;;;1658901;86;21042;-70
2022/03/25 06:41:46;;;;;;;10.13;7.12;;;;;;;;;;1658700;86;21124;-69
2022/03/25 06:44:14;;;;;;;10.43;7.25;;;;;;;;;;1658818;86;21103;-70
2022/03/25 06:46:40;;;;;;;12.55;7.55;;;;;;;;;;1658506;86;21073;-70
2022/03/25 06:49:07;;;;;;;8.63;6.20;;;;;;;;;;1658813;86;21076;-70
2022/03/25 06:51:34;;;;;;;10.35;6.67;;;;;;;;;;1658778;86;21084;-70
2022/03/25 06:54:02;;;;;;;9.40;6.20;;;;;;;;;;1658693;86;21030;-70
2022/03/25 06:56:29;;;;;;;10.68;7.05;;;;;;;;;;1658828;86;21576;-71
2022/03/25 06:58:56;;;;;;;9.08;6.80;;;;;;;;;;1658586;86;21069;-70
2022/03/25 07:01:25;;;;;;;9.95;5.87;;;;;;;;;;1658609;86;21077;-71
2022/03/25 07:03:52;;;;;;;8.98;6.53;;;;;;;;;;1658558;85;21620;-71
2022/03/25 07:06:23;;;;;;;11.48;6.80;;;;;;;;;;1658551;86;21545;-71
2022/03/25 07:08:51;;;;;;;9.83;6.37;;;;;;;;;;1658660;86;21077;-71
2022/03/25 07:11:19;;;;;;;9.53;6.47;;;;;;;;;;1658738;86;21088;-71
2022/03/25 07:13:46;;;;;;;8.25;6.12;;;;;;;;;;1658771;86;21105;-71
2022/03/25 07:16:13;;;;;;;7.72;5.45;;;;;;;;;;1658809;86;21120;-71
2022/03/25 07:18:41;;;;;;;9.28;5.42;;;;;;;;;;1658650;86;21061;-71
2022/03/25 07:21:08;;;;;;;7.40;4.83;;;;;;;;;;1658651;86;21048;-70
2022/03/25 07:23:34;;;;;;;7.90;5.92;;;;;;;;;;1658540;86;21096;-71
2022/03/25 07:26:02;;;;;;;9.70;5.45;;;;;;;;;;1658723;86;21042;-69
2022/03/25 07:28:29;;;;;;;7.80;5.67;;;;;;;;;;1658679;86;21121;-69
2022/03/25 07:30:55;;;;;;;7.33;5.12;;;;;;;;;;1658986;85;21081;-69
2022/03/25 07:33:22;;;;;;;8.30;4.90;;;;;;;;;;1659137;86;21113;-69
2022/03/25 07:35:55;;;;;;;8.45;5.42;;;;;;;;;;1658733;86;21096;-70
2022/03/25 07:38:22;;;;;;;7.47;4.67;;;;;;;;;;1658938;86;21084;-70
2022/03/25 07:40:49;;;;;;;7.03;5.17;;;;;;;;;;1658476;86;21560;-69
2022/03/25 07:43:15;;;;;;;7.15;5.12;;;;;;;;;;1658751;86;21521;-69
2022/03/25 07:45:42;;;;;;;8.20;4.58;;;;;;;;;;1658575;86;21050;-69
2022/03/25 07:48:08;;;;;;;7.83;5.25;;;;;;;;;;1658830;86;21132;-69
2022/03/25 07:50:35;;;;;;;11.45;7.10;;;;;;;;;;1658614;86;21080;-69
2022/03/25 07:53:02;;;;;;;8.80;6.15;;;;;;;;;;1658903;86;21513;-69
2022/03/25 07:55:28;;;;;;;9.23;6.40;;;;;;;;;;1658666;86;21623;-69
2022/03/25 07:57:57;;;;;;;11.85;8.05;;;;;;;;;;1658843;86;21092;-70
2022/03/25 08:00:24;;;;;;;11.15;6.90;;;;;;;;;;1658573;86;21726;-70
2022/03/25 08:02:52;;;;;;;10.75;7.00;;;;;;;;;;1658748;86;21572;-70
2022/03/25 08:05:18;;;;;;;11.75;7.22;;;;;;;;;;1658078;86;21639;-69
2022/03/25 08:07:48;;;;;;;12.75;8.25;;;;;;;;;;1660143;86;21120;-69
2022/03/25 08:10:17;;;;;;;14.95;8.48;;;;;;;;;;1659981;86;21072;-69
2022/03/25 08:12:46;;;;;;;13.85;7.87;;;;;;;;;;1659996;86;21072;-70
2022/03/25 08:15:13;;;;;;;9.83;6.67;;;;;;;;;;1660068;86;21080;-70
2022/03/25 08:17:48;;;;;;;11.63;7.28;;;;;;;;;;1660006;86;21085;-70
2022/03/25 08:20:16;;;;;;;11.45;7.87;;;;;;;;;;1660065;86;21587;-70
2022/03/25 08:22:42;;;;;;;14.45;9.05;;;;;;;;;;1659640;86;21129;-70
2022/03/25 08:27:49;;;;;;;10.53;6.92;;;;;;;;;;1627970;86;21138;-70
2022/03/25 08:30:16;;;;;;;8.95;5.87;;;;;;;;;;1660385;86;21049;-70
2022/03/25 08:32:43;;;;;;;11.10;7.03;;;;;;;;;;1660231;86;21073;-70
2022/03/25 08:35:10;;;;;;;9.00;6.17;;;;;;;;;;1660348;86;21075;-70
2022/03/25 08:37:37;;;;;;;12.15;7.60;;;;;;;;;;1660133;86;21077;-70
2022/03/25 08:40:04;;;;;;;11.25;6.85;;;;;;;;;;1660414;86;21112;-70
2022/03/25 08:42:31;;;;;;;11.70;6.47;;;;;;;;;;1660089;86;21104;-70
2022/03/25 08:44:58;;;;;;;11.00;6.72;;;;;;;;;;1660340;86;21048;-69
2022/03/25 08:47:25;;;;;;;12.05;7.42;;;;;;;;;;1660213;86;21065;-70
2022/03/25 08:49:53;;;;;;;10.38;6.87;;;;;;;;;;1660349;86;21065;-70
2022/03/25 08:52:21;;;;;;;9.58;6.37;;;;;;;;;;1660138;86;21057;-70
2022/03/25 08:54:57;;;;;;;10.55;5.92;;;;;;;;;;1703797;84;21130;-71
2022/03/25 08:57:24;;;;;;;13.35;7.95;;;;;;;;;;1699492;84;21499;-71
2022/03/25 08:59:51;;;;;;;10.88;7.37;;;;;;;;;;1699536;84;21555;-72
2022/03/25 09:02:17;;;;;;;9.78;6.50;;;;;;;;;;1699772;84;21057;-71
2022/03/25 09:04:46;;;;;;;14.33;7.80;;;;;;;;;;1698032;84;21064;-71
2022/03/25 09:07:12;;;;;;;10.03;6.80;;;;;;;;;;1698180;84;21511;-72
2022/03/25 09:09:40;;;;;;;11.60;7.65;;;;;;;;;;1730176;83;21095;-72
2022/03/25 09:12:08;;;;;;;9.08;5.90;;;;;;;;;;1730391;83;21546;-71
2022/03/25 09:14:37;;;;;;;8.15;5.08;;;;;;;;;;1730153;83;21104;-71
2022/03/25 09:17:05;;;;;;;10.45;5.90;;;;;;;;;;1730318;83;21020;-71
2022/03/25 09:19:33;;;;;;;8.85;5.92;;;;;;;;;;1730226;83;21044;-72
2022/03/25 09:22:00;;;;;;;10.18;6.92;;;;;;;;;;1730503;83;21511;-72
2022/03/25 09:24:26;;;;;;;9.93;6.50;;;;;;;;;;1730453;83;21047;-72
2022/03/25 09:26:53;;;;;;;8.83;5.50;;;;;;;;;;1730305;83;21059;-72
2022/03/25 09:29:20;;;;;;;11.05;5.80;;;;;;;;;;1730253;83;21048;-71
2022/03/25 09:31:46;;;;;;;10.93;6.80;;;;;;;;;;1730200;83;21087;-72
2022/03/25 09:36:58;;;;;;;8.80;6.17;;;;;;;;;;1730082;83;21095;-71
2022/03/25 09:39:24;;;;;;;9.08;6.22;;;;;;;;;;1730263;83;21063;-71
2022/03/25 09:41:52;;;;;;;9.23;6.45;;;;;;;;;;1730063;83;21075;-71
2022/03/25 09:44:18;;;;;;;8.43;5.70;;;;;;;;;;1730396;83;21032;-71
2022/03/25 09:46:49;;;;;;;7.80;5.45;;;;;;;;;;1729953;83;21111;-72
2022/03/25 09:49:15;;;;;;;9.18;5.60;;;;;;;;;;1730274;83;21560;-72
2022/03/25 09:51:42;;;;;;;9.83;5.70;;;;;;;;;;1700172;83;21562;-71
2022/03/25 09:54:09;;;;;;;9.75;6.95;;;;;;;;;;1744735;80;21041;-72
2022/03/25 09:56:36;;;;;;;9.60;6.72;;;;;;;;;;1755809;81;21041;-72
2022/03/25 09:59:03;;;;;;;9.50;6.35;;;;;;;;;;1755844;82;21092;-72
2022/03/25 10:01:30;;;;;;;7.75;5.20;;;;;;;;;;1755847;82;21072;-72
2022/03/25 10:03:57;;;;;;;9.20;5.65;;;;;;;;;;1756193;80;21068;-72
2022/03/25 10:06:24;;;;;;;8.50;4.97;;;;;;;;;;1755837;81;21037;-72
2022/03/25 10:08:55;;;;;;;7.08;4.92;;;;;;;;;;1756238;82;21046;-72
2022/03/25 10:11:24;;;;;;;9.68;6.22;;;;;;;;;;1755772;82;21115;-72
2022/03/25 10:14:09;;;;;;;9.08;5.87;;;;;;;;;;1756084;82;21025;-72
2022/03/25 10:16:35;;;;;;;8.80;6.40;;;;;;;;;;1756178;82;20969;-71
2022/03/25 10:19:03;;;;;;;8.08;6.08;;;;;;;;;;1756163;81;21118;-72
2022/03/25 10:21:33;;;;;;;9.08;5.15;;;;;;;;;;1755937;82;21068;-72
2022/03/25 10:24:00;;;;;;;8.70;5.60;;;;;;;;;;1754892;81;21065;-71
2022/03/25 10:26:36;;;;;;;9.93;6.50;;;;;;;;;;1756188;82;21523;-72
2022/03/25 10:29:04;;;;;;;9.38;6.15;;;;;;;;;;1756151;81;21106;-72
2022/03/25 10:31:33;;;;;;;7.95;6.17;;;;;;;;;;1756165;81;20994;-71
2022/03/25 10:34:00;;;;;;;8.38;5.85;;;;;;;;;;1756203;81;21532;-72
2022/03/25 10:36:26;;;;;;;7.80;5.30;;;;;;;;;;1756255;81;21005;-71
2022/03/25 10:38:57;;;;;;;8.13;5.55;;;;;;;;;;1756050;82;21092;-71
2022/03/25 10:41:25;;;;;;;8.50;5.05;;;;;;;;;;1755927;82;21116;-72
2022/03/25 10:43:55;;;;;;;8.68;6.25;;;;;;;;;;1756250;81;21017;-72
2022/03/25 10:46:30;;;;;;;8.58;5.78;;;;;;;;;;1756490;82;20996;-72
2022/03/25 10:48:56;;;;;;;;;;;;;;;;;;1759163;81;21037;-72
2022/03/25 10:51:24;;;;;;;7.17;4.60;;;;;;;;;;1756755;82;20136;-71
2022/03/25 10:54:07;;;;;;;6.55;4.85;;;;;;;;;;1756599;81;21065;-71
2022/03/25 10:56:44;;;;;;;8.10;5.65;;;;;;;;;;1756065;82;21048;-72
2022/03/25 10:59:23;;;;;;;7.83;5.62;;;;;;;;;;1756203;81;21084;-71
2022/03/25 11:01:51;;;;;;;8.40;5.40;;;;;;;;;;1756091;82;21504;-72
2022/03/25 11:04:18;;;;;;;7.40;5.60;;;;;;;;;;1755933;80;21068;-72
2022/03/25 11:06:46;;;;;;;9.90;5.65;;;;;;;;;;1756124;82;21052;-73
2022/03/25 11:09:17;;;;;;;8.50;4.97;;;;;;;;;;1755944;82;21628;-72
2022/03/25 11:11:44;;;;;;;6.65;4.53;;;;;;;;;;1755893;80;21025;-73
2022/03/25 11:14:12;;;;;;;8.75;6.08;;;;;;;;;;1755948;82;21179;-72
2022/03/25 11:16:40;;;;;;;7.62;5.33;;;;;;;;;;1756137;82;21029;-72
2022/03/25 11:19:09;;;;;;;8.35;5.70;;;;;;;;;;1756040;80;21490;-73
2022/03/25 11:21:40;;;;;;;8.18;5.85;;;;;;;;;;1755765;81;21060;-72
2022/03/25 11:24:18;;;;;;;8.25;5.55;;;;;;;;;;1756046;80;21124;-72
2022/03/25 11:26:45;;;;;;;7.17;4.67;;;;;;;;;;1755834;82;21017;-72
2022/03/25 11:29:11;;;;;;;8.30;5.53;;;;;;;;;;1756220;82;20978;-72
2022/03/25 11:31:59;;;;;;;8.48;4.97;;;;;;;;;;1755819;82;21036;-72
2022/03/25 11:34:26;;;;;;;9.15;6.05;;;;;;;;;;1756007;82;21000;-72
2022/03/25 11:37:13;;;;;;;8.20;5.45;;;;;;;;;;1755729;82;21060;-72
2022/03/25 11:39:40;;;;;;;7.67;5.42;;;;;;;;;;1755298;81;21138;-72
2022/03/25 11:42:07;;;;;;;8.90;4.95;;;;;;;;;;1755790;81;21068;-72
2022/03/25 11:44:33;;;;;;;8.75;4.95;;;;;;;;;;1756212;81;21505;-73
2022/03/25 11:47:03;;;;;;;7.95;4.95;;;;;;;;;;1756064;81;21025;-72
2022/03/25 11:49:31;;;;;;;7.35;4.83;;;;;;;;;;1756139;81;20985;-73
2022/03/25 11:52:00;;;;;;;9.03;5.72;;;;;;;;;;1755746;82;21515;-73
2022/03/25 11:54:35;;;;;;;7.78;4.55;;;;;;;;;;1754326;80;21072;-72
2022/03/25 11:57:02;;;;;;;9.73;5.17;;;;;;;;;;1756168;82;21052;-73
2022/03/25 11:59:30;;;;;;;8.55;6.08;;;;;;;;;;1756052;81;21008;-73
2022/03/25 12:02:16;;;;;;;7.30;4.78;;;;;;;;;;1745545;82;21654;-72
2022/03/25 12:04:44;;;;;;;6.28;4.70;;;;;;;;;;1755956;80;21081;-72
2022/03/25 12:07:11;;;;;;;7.75;4.62;;;;;;;;;;1756087;82;21118;-73
2022/03/25 12:09:37;;;;;;;8.00;5.03;;;;;;;;;;1756147;82;21239;-73
2022/03/25 12:12:04;;;;;;;7.37;4.90;;;;;;;;;;1756038;81;21014;-72
2022/03/25 12:14:31;;;;;;;7.30;4.67;;;;;;;;;;1756136;82;21024;-73
2022/03/25 12:17:03;;;;;;;7.30;4.42;;;;;;;;;;1755780;82;21057;-72
2022/03/25 12:20:17;;;;;;;6.65;4.70;;;;;;;;;;1801719;79;24166;-70
2022/03/25 12:22:46;;;;;;;5.87;4.42;;;;;;;;;;1761730;81;21001;-70
2022/03/25 12:25:16;;;;;;;8.25;4.45;;;;;;;;;;1761823;81;21087;-70
2022/03/25 12:27:44;;;;;;;7.85;4.95;;;;;;;;;;1761683;81;21013;-69
2022/03/25 12:30:14;;;;;;;6.87;5.28;;;;;;;;;;1761742;81;21024;-69
2022/03/25 12:32:42;;;;;;;7.97;5.50;;;;;;;;;;1742641;81;21060;-69
2022/03/25 12:35:16;;;;;;;7.75;5.47;;;;;;;;;;1761722;81;21080;-70
2022/03/25 12:37:49;;;;;;;7.83;5.58;;;;;;;;;;1761643;81;21006;-70
2022/03/25 12:40:23;;;;;;;7.58;4.62;;;;;;;;;;1761837;81;20965;-70
2022/03/25 12:42:52;;;;;;;6.33;4.92;;;;;;;;;;1761810;81;21001;-69
2022/03/25 12:45:31;;;;;;;7.17;4.92;;;;;;;;;;1761467;81;21027;-72
2022/03/25 12:48:00;;;;;;;6.72;4.80;;;;;;;;;;1761671;81;21493;-72
2022/03/25 12:50:30;;;;;;;6.83;4.75;;;;;;;;;;1761852;81;21048;-69
2022/03/25 12:53:01;;;;;;;7.55;5.78;;;;;;;;;;1761571;81;21528;-69
2022/03/25 12:55:30;;;;;;;8.30;5.60;;;;;;;;;;1761817;81;20998;-69
2022/03/25 12:58:04;;;;;;;10.25;5.92;;;;;;;;;;1761595;81;21540;-69
2022/03/25 13:00:35;;;;;;;7.25;4.42;;;;;;;;;;1742407;81;21594;-69
2022/03/25 13:03:03;;;;;;;7.30;4.92;;;;;;;;;;1758276;81;21000;-69
2022/03/25 13:05:31;;;;;;;8.65;5.05;;;;;;;;;;1728356;83;21039;-69
2022/03/25 13:07:59;;;;;;;8.00;5.42;;;;;;;;;;1699888;83;20995;-69
2022/03/25 13:10:29;;;;;;;7.75;4.90;;;;;;;;;;1728141;83;21108;-69
2022/03/25 13:12:58;;;;;;;8.55;4.85;;;;;;;;;;1728300;83;21019;-69
2022/03/25 13:15:27;;;;;;;8.85;5.05;;;;;;;;;;1728405;83;21031;-69
2022/03/25 13:17:55;;;;;;;7.75;4.65;;;;;;;;;;1728278;83;21060;-69
2022/03/25 13:20:25;;;;;;;9.33;5.42;;;;;;;;;;1720986;83;21593;-70
2022/03/25 13:22:54;;;;;;;7.35;4.85;;;;;;;;;;1720527;83;21055;-69
2022/03/25 13:25:26;;;;;;;11.45;6.37;;;;;;;;;;1692256;83;21047;-70
2022/03/25 13:27:56;;;;;;;10.78;5.83;;;;;;;;;;1720400;83;21578;-70
2022/03/25 13:30:24;;;;;;;13.08;6.17;;;;;;;;;;1720338;83;21043;-69
2022/03/25 13:32:58;;;;;;;11.15;5.53;;;;;;;;;;1720075;83;21595;-70
2022/03/25 13:35:32;;;;;;;11.40;5.70;;;;;;;;;;1719759;83;21068;-70
2022/03/25 13:38:00;;;;;;;15.13;6.92;;;;;;;;;;1720082;83;20992;-70
2022/03/25 13:40:28;;;;;;;15.25;9.03;;;;;;;;;;1719985;83;21037;-70
2022/03/25 13:42:56;;;;;;;12.88;7.70;;;;;;;;;;1719550;83;21071;-70
2022/03/25 13:45:23;;;;;;;12.93;8.08;;;;;;;;;;1719977;83;21678;-70
2022/03/25 13:48:08;;;;;;;15.90;7.72;;;;;;;;;;1691389;83;21565;-70
2022/03/25 13:50:39;;;;;;;12.88;7.53;;;;;;;;;;1719985;83;21511;-70
2022/03/25 13:53:10;;;;;;;13.72;8.40;;;;;;;;;;1718499;83;21063;-70
2022/03/25 13:55:39;;;;;;;13.35;7.75;;;;;;;;;;1720069;83;21071;-70
2022/03/25 13:58:07;;;;;;;17.15;7.83;;;;;;;;;;1719851;83;21036;-70
2022/03/25 14:00:39;;;;;;;12.53;7.12;;;;;;;;;;1719748;83;21151;-71
2022/03/25 14:03:07;;;;;;;12.40;8.00;;;;;;;;;;1719642;82;21107;-69
2022/03/25 14:05:37;;;;;;;11.65;5.97;;;;;;;;;;1719994;83;20992;-70
2022/03/25 14:08:06;;;;;;;11.95;6.30;;;;;;;;;;1719869;83;21043;-70
2022/03/25 14:10:37;;;;;;;16.67;7.53;;;;;;;;;;1719994;83;21063;-70
2022/03/25 14:13:05;;;;;;;9.90;6.50;;;;;;;;;;1720031;83;21021;-69
2022/03/25 14:15:36;;;;;;;9.60;6.45;;;;;;;;;;1719958;83;21072;-70
2022/03/25 14:18:04;;;;;;;11.08;6.05;;;;;;;;;;1719899;83;21031;-70
2022/03/25 14:20:35;;;;;;;11.48;6.28;;;;;;;;;;1719701;83;21064;-70
2022/03/25 14:23:03;;;;;;;12.30;7.72;;;;;;;;;;1719893;83;21504;-70
2022/03/25 14:25:33;;;;;;;10.55;6.20;;;;;;;;;;1692070;83;21023;-70
2022/03/25 14:28:02;;;;;;;12.75;7.17;;;;;;;;;;1719986;83;21028;-70
2022/03/25 14:30:30;;;;;;;10.43;7.17;;;;;;;;;;1719682;83;21067;-70
2022/03/25 14:32:57;;;;;;;12.40;8.95;;;;;;;;;;1719989;83;21503;-70
2022/03/25 14:35:24;;;;;;;11.40;8.60;;;;;;;;;;1691785;83;21512;-69
2022/03/25 14:37:52;;;;;;;13.38;8.13;;;;;;;;;;1719877;83;21583;-70
2022/03/25 14:40:20;;;;;;;12.20;8.15;;;;;;;;;;1720036;83;21019;-71
2022/03/25 14:42:48;;;;;;;14.78;9.15;;;;;;;;;;1719885;83;21079;-71
2022/03/25 14:45:16;;;;;;;12.45;8.33;;;;;;;;;;1720047;83;21547;-71
2022/03/25 14:47:44;;;;;;;11.95;8.93;;;;;;;;;;1719783;83;21008;-71
2022/03/25 14:50:13;;;;;;;14.47;9.43;;;;;;;;;;1719975;83;20992;-71